Time;durP1;ratioP1;P1;durP2;ratioP2;P2;SDS_P1;SDS_P2;PMS_P1;PMS_P2;Temp;Humidity;BMP_temperature;BMP_pressure;BME280_temperature;BME280_humidity;BME280_pressure;Samples;Min_cycle;Max_cycle;Signal;HPM_P1;HPM_P2
2022/01/26 00:06:47;;;;;;;29.20;14.05;;;;;;;0.71;78.98;100412.06;2618783;54;20045;-69
2022/01/26 00:09:16;;;;;;;25.63;13.73;;;;;;;0.73;79.55;100418.03;2622058;54;20035;-65
2022/01/26 00:11:49;;;;;;;24.10;13.48;;;;;;;0.80;79.58;100415.88;2623091;39;20444;-65
2022/01/26 00:14:18;;;;;;;25.55;12.65;;;;;;;0.86;79.55;100415.53;2623696;54;20027;-63
2022/01/26 00:16:48;;;;;;;25.13;12.93;;;;;;;0.90;79.22;100419.63;2622618;54;20027;-64
2022/01/26 00:19:22;;;;;;;27.80;13.77;;;;;;;0.87;79.31;100417.19;2622554;54;20034;-64
2022/01/26 00:21:53;;;;;;;27.70;13.43;;;;;;;0.81;79.34;100408.91;2623596;54;20042;-63
2022/01/26 00:24:50;;;;;;;26.58;13.70;;;;;;;0.78;78.86;100409.94;2621857;54;20070;-63
2022/01/26 00:27:33;;;;;;;26.35;13.77;;;;;;;0.74;78.90;100411.88;2619952;54;20037;-63
2022/01/26 00:31:13;;;;;;;;;;;;;;;0.74;79.31;100413.66;2620096;39;20402;-67
2022/01/26 00:33:07;;;;;;;27.50;13.98;;;;;;;0.81;79.37;100416.72;2620542;54;19996;-64
2022/01/26 00:38:38;;;;;;;28.67;14.43;;;;;;;0.81;79.08;100401.09;2621335;54;20030;-63
2022/01/26 00:41:12;;;;;;;28.55;13.63;;;;;;;0.74;78.88;100411.06;2619842;51;20526;-63
2022/01/26 00:43:49;;;;;;;27.93;14.97;;;;;;;0.75;79.16;100404.91;2619073;54;20558;-63
2022/01/26 00:46:20;;;;;;;28.42;14.60;;;;;;;0.72;79.34;100410.28;2618706;54;20038;-63
2022/01/26 00:48:51;;;;;;;28.40;14.90;;;;;;;0.75;79.29;100407.50;2617651;54;20055;-62
2022/01/26 00:51:22;;;;;;;28.98;14.35;;;;;;;0.68;78.83;100421.81;2618402;54;20030;-62
2022/01/26 00:54:01;;;;;;;31.50;14.98;;;;;;;0.63;79.22;100424.69;2618339;54;20046;-61
2022/01/26 00:56:31;;;;;;;30.70;15.20;;;;;;;0.60;79.34;100421.41;2618535;39;20449;-61
2022/01/26 00:59:05;;;;;;;28.95;14.70;;;;;;;0.57;79.45;100418.97;2618491;54;20027;-61
2022/01/26 01:01:35;;;;;;;29.77;15.30;;;;;;;0.51;79.23;100415.00;2617975;54;20038;-62
2022/01/26 01:04:06;;;;;;;28.38;15.10;;;;;;;0.47;79.50;100405.69;2617548;54;20026;-62
2022/01/26 01:06:43;;;;;;;33.25;15.57;;;;;;;0.45;79.69;100415.34;2618237;54;20523;-62
2022/01/26 01:09:13;;;;;;;31.75;14.68;;;;;;;0.52;79.72;100408.84;2618887;54;20035;-62
2022/01/26 01:11:43;;;;;;;30.83;15.48;;;;;;;0.51;79.71;100407.19;2618862;54;20042;-62
2022/01/26 01:14:15;;;;;;;30.52;16.13;;;;;;;0.40;79.18;100414.75;2621135;54;20063;-65
2022/01/26 01:16:45;;;;;;;34.08;15.85;;;;;;;0.39;79.75;100416.53;2619411;54;20038;-62
2022/01/26 01:19:29;;;;;;;27.27;14.32;;;;;;;0.41;79.49;100416.47;2617928;54;20170;-63
2022/01/26 01:27:45;;;;;;;29.77;14.35;;;;;;;0.38;79.60;100425.28;2620481;54;20041;-67
2022/01/26 01:30:28;;;;;;;28.20;14.65;;;;;;;0.38;79.80;100424.44;2620979;54;20030;-62
2022/01/26 01:33:07;;;;;;;32.20;14.27;;;;;;;0.37;79.67;100425.38;2620278;54;20022;-63
2022/01/26 01:35:39;;;;;;;28.05;14.27;;;;;;;0.37;79.81;100426.19;2620566;54;20026;-63
2022/01/26 01:38:14;;;;;;;31.80;16.27;;;;;;;0.34;79.70;100418.56;2620477;54;20042;-63
2022/01/26 01:40:46;;;;;;;29.23;14.57;;;;;;;0.34;79.88;100418.56;2619942;47;20082;-63
2022/01/26 01:43:17;;;;;;;30.75;15.52;;;;;;;0.41;79.87;100424.25;2619842;54;20038;-64
2022/01/26 01:45:53;;;;;;;31.00;15.43;;;;;;;0.46;79.56;100424.84;2618242;54;20026;-63
2022/01/26 01:48:28;;;;;;;29.98;14.43;;;;;;;0.43;79.83;100414.59;2618433;54;20022;-64
2022/01/26 01:51:00;;;;;;;31.73;15.80;;;;;;;0.41;79.49;100424.25;2618721;54;20060;-64
2022/01/26 01:53:36;;;;;;;31.27;15.10;;;;;;;0.42;79.35;100421.56;2621936;39;20411;-64
2022/01/26 01:56:07;;;;;;;32.28;15.23;;;;;;;0.43;79.34;100425.00;2620280;39;20399;-65
2022/01/26 01:58:38;;;;;;;29.65;14.85;;;;;;;0.52;79.71;100421.03;2618578;54;20037;-64
2022/01/26 02:01:11;;;;;;;32.10;15.10;;;;;;;0.60;79.36;100427.47;2617592;54;20789;-65
2022/01/26 02:03:41;;;;;;;28.83;15.33;;;;;;;0.56;79.45;100422.53;2618288;54;20031;-65
2022/01/26 02:06:11;;;;;;;29.02;15.73;;;;;;;0.62;79.36;100419.56;2618193;54;20299;-64
2022/01/26 02:08:42;;;;;;;27.85;15.30;;;;;;;0.62;79.05;100412.59;2618338;54;20041;-64
2022/01/26 02:11:13;;;;;;;29.05;15.00;;;;;;;0.65;79.17;100432.38;2618457;54;20045;-63
2022/01/26 02:13:53;;;;;;;28.73;14.82;;;;;;;0.60;78.94;100427.47;2618462;54;20031;-64
2022/01/26 02:16:30;;;;;;;25.52;13.40;;;;;;;0.51;78.73;100432.38;2618361;54;20039;-64
2022/01/26 02:51:50;;;;;;;32.00;16.25;;;;;;;0.48;78.30;100439.41;2618618;39;20434;-65
2022/01/26 02:57:25;;;;;;;33.30;16.30;;;;;;;0.37;78.51;100438.38;2618016;54;20034;-65
2022/01/26 03:00:16;;;;;;;37.22;16.55;;;;;;;0.47;79.20;100426.50;2617915;39;20417;-63
2022/01/26 03:02:51;;;;;;;33.20;16.73;;;;;;;0.55;79.05;100433.88;2617539;54;20050;-63
2022/01/26 03:05:27;;;;;;;33.47;16.60;;;;;;;0.68;78.98;100421.81;2617727;39;20430;-64
2022/01/26 03:08:00;;;;;;;32.63;14.98;;;;;;;0.63;78.51;100424.69;2618577;54;20058;-63
2022/01/26 03:10:44;;;;;;;35.70;16.30;;;;;;;0.53;78.42;100418.34;2618978;54;20600;-64
2022/01/26 03:13:18;;;;;;;28.90;14.40;;;;;;;0.55;79.05;100420.84;2618830;54;20283;-65
2022/01/26 03:15:52;;;;;;;27.67;14.60;;;;;;;0.57;78.75;100421.59;2617980;54;20030;-64
2022/01/26 03:21:09;;;;;;;28.45;14.95;;;;;;;0.55;78.54;100421.69;2619554;39;20430;-64
2022/01/26 03:29:37;;;;;;;32.95;15.32;;;;;;;0.49;78.60;100403.84;2618940;54;20035;-62
2022/01/26 03:34:55;;;;;;;30.75;15.05;;;;;;;0.46;78.61;100396.22;2619235;54;20050;-63
2022/01/26 03:37:30;;;;;;;29.13;14.27;;;;;;;0.52;78.95;100403.66;2618130;54;20034;-64
2022/01/26 03:40:00;;;;;;;34.63;15.82;;;;;;;0.48;78.45;100415.16;2618277;54;20057;-62
2022/01/26 03:42:32;;;;;;;27.70;15.10;;;;;;;0.49;79.03;100412.50;2618615;54;20086;-62
2022/01/26 03:45:01;;;;;;;30.05;15.80;;;;;;;0.51;78.54;100408.94;2618573;54;20109;-62
2022/01/26 03:47:31;;;;;;;28.17;14.13;;;;;;;0.51;79.03;100411.56;2618333;54;20038;-64
2022/01/26 03:50:01;;;;;;;33.67;15.27;;;;;;;0.53;78.70;100409.69;2618991;54;20046;-64
2022/01/26 03:52:30;;;;;;;32.97;14.57;;;;;;;0.55;78.46;100416.47;2619145;39;20670;-65
2022/01/26 03:55:00;;;;;;;33.13;15.65;;;;;;;0.57;79.08;100416.38;2618791;54;20031;-64
2022/01/26 03:57:32;;;;;;;33.78;15.50;;;;;;;0.63;79.14;100414.28;2618786;54;20030;-64
2022/01/26 04:00:01;;;;;;;32.60;14.85;;;;;;;0.68;78.49;100419.19;2618076;54;20118;-65
2022/01/26 04:02:41;;;;;;;33.08;15.95;;;;;;;0.54;78.41;100419.19;2618657;54;20081;-65
2022/01/26 04:05:12;;;;;;;33.70;15.70;;;;;;;0.52;79.04;100418.41;2618614;54;20077;-65
2022/01/26 04:07:43;;;;;;;33.15;15.23;;;;;;;0.49;78.87;100412.50;2618516;54;20038;-64
2022/01/26 04:10:21;;;;;;;37.58;16.67;;;;;;;0.42;78.52;100413.75;2618902;54;20042;-64
2022/01/26 04:12:53;;;;;;;34.35;15.32;;;;;;;0.40;78.91;100417.38;2619284;39;20438;-64
2022/01/26 04:15:27;;;;;;;31.23;14.73;;;;;;;0.40;79.32;100415.59;2618169;54;20538;-64
2022/01/26 04:17:58;;;;;;;27.85;11.82;;;;;;;0.38;78.79;100414.03;2618250;39;20446;-67
2022/01/26 04:20:31;;;;;;;33.10;16.30;;;;;;;0.36;79.20;100424.50;2617989;54;20062;-64
2022/01/26 04:23:11;;;;;;;32.58;15.30;;;;;;;0.37;79.11;100425.38;2619014;47;20026;-66
2022/01/26 04:25:43;;;;;;;32.58;14.63;;;;;;;0.40;79.22;100420.81;2621620;54;20078;-64
2022/01/26 04:28:20;;;;;;;35.75;15.57;;;;;;;0.44;79.14;100413.66;2619435;54;20038;-64
2022/01/26 04:30:49;;;;;;;35.70;16.30;;;;;;;0.37;78.98;100417.56;2618855;54;20093;-64
2022/01/26 04:33:19;;;;;;;32.85;15.10;;;;;;;0.34;78.66;100415.13;2618078;54;20030;-64
2022/01/26 04:35:49;;;;;;;36.75;16.90;;;;;;;0.27;79.05;100421.59;2618540;54;20034;-64
2022/01/26 04:38:23;;;;;;;31.63;15.02;;;;;;;0.36;78.95;100421.91;2618443;54;20066;-63
2022/01/26 04:41:04;;;;;;;31.60;15.45;;;;;;;0.38;78.93;100424.44;2618611;54;20085;-64
2022/01/26 04:43:39;;;;;;;28.48;14.45;;;;;;;0.37;79.22;100418.41;2619365;54;20053;-65
2022/01/26 04:46:09;;;;;;;39.67;16.13;;;;;;;0.31;79.08;100425.69;2619828;54;20030;-65
2022/01/26 04:48:39;;;;;;;31.63;15.02;;;;;;;0.31;79.09;100429.13;2621799;54;20045;-63
2022/01/26 04:51:09;;;;;;;32.28;16.40;;;;;;;0.31;79.23;100431.75;2622236;54;20081;-63
2022/01/26 04:53:41;;;;;;;33.08;15.90;;;;;;;0.27;79.19;100429.41;2622432;54;20040;-63
2022/01/26 04:56:13;;;;;;;34.22;15.18;;;;;;;0.27;79.46;100422.44;2622006;39;20442;-64
2022/01/26 04:58:45;;;;;;;31.92;15.48;;;;;;;0.29;79.77;100425.81;2621855;54;20561;-63
2022/01/26 05:01:15;;;;;;;28.42;13.35;;;;;;;0.27;79.58;100424.19;2621384;39;20465;-64
2022/01/26 05:03:45;;;;;;;32.70;15.23;;;;;;;0.22;79.44;100425.31;2621652;54;20604;-64
2022/01/26 05:06:15;;;;;;;33.70;16.45;;;;;;;0.20;79.57;100434.09;2621677;54;20049;-64
2022/01/26 05:08:44;;;;;;;35.42;15.43;;;;;;;0.12;79.63;100426.75;2624008;39;20417;-64
2022/01/26 05:11:21;;;;;;;33.88;13.95;;;;;;;0.05;80.02;100429.78;2622280;54;20031;-66
2022/01/26 05:14:00;;;;;;;34.55;15.93;;;;;;;0.14;80.22;100426.66;2620628;54;20045;-64
2022/01/26 05:16:30;;;;;;;31.60;14.55;;;;;;;0.23;80.16;100419.16;2620154;54;20085;-64
2022/01/26 05:19:01;;;;;;;26.70;13.80;;;;;;;0.29;79.96;100411.97;2618136;54;20125;-65
2022/01/26 05:21:31;;;;;;;33.03;16.60;;;;;;;0.28;79.97;100418.91;2619036;54;20038;-64
2022/01/26 05:24:00;;;;;;;29.92;14.90;;;;;;;0.26;79.64;100409.53;2618745;54;20542;-65
2022/01/26 05:26:30;;;;;;;35.90;15.07;;;;;;;0.22;79.51;100401.06;2620714;54;20039;-64
2022/01/26 05:29:02;;;;;;;33.00;15.38;;;;;;;0.11;80.01;100399.06;2621507;39;20540;-63
2022/01/26 05:31:32;;;;;;;31.42;15.02;;;;;;;0.10;79.73;100397.38;2620152;54;20038;-65
2022/01/26 05:34:02;;;;;;;30.88;15.43;;;;;;;0.14;79.85;100392.84;2618578;54;20039;-64
2022/01/26 05:36:31;;;;;;;31.23;15.15;;;;;;;0.14;80.20;100385.88;2618341;54;20030;-64
2022/01/26 05:39:01;;;;;;;30.63;14.90;;;;;;;0.18;80.41;100391.75;2618670;54;20030;-64
2022/01/26 05:41:31;;;;;;;31.98;15.00;;;;;;;0.18;80.11;100389.16;2618283;54;20030;-64
2022/01/26 05:44:03;;;;;;;31.42;15.48;;;;;;;0.28;80.05;100382.47;2617621;54;20034;-64
2022/01/26 05:46:38;;;;;;;29.10;14.25;;;;;;;0.33;80.23;100383.09;2618396;54;20041;-62
2022/01/26 05:49:09;;;;;;;34.72;17.00;;;;;;;0.25;79.74;100387.88;2618473;54;20037;-61
2022/01/26 05:51:39;;;;;;;33.55;17.15;;;;;;;0.29;79.71;100385.94;2617560;47;20047;-63
2022/01/26 05:54:10;;;;;;;32.22;15.32;;;;;;;0.36;79.82;100385.47;2618210;54;20042;-63
2022/01/26 05:56:42;;;;;;;33.55;15.88;;;;;;;0.37;79.92;100381.97;2618139;54;20055;-63
2022/01/26 05:59:14;;;;;;;39.30;18.15;;;;;;;0.36;79.53;100380.28;2618151;54;20035;-63
2022/01/26 06:01:44;;;;;;;32.15;15.20;;;;;;;0.30;79.45;100388.44;2617658;54;20151;-64
2022/01/26 06:04:14;;;;;;;28.90;14.02;;;;;;;0.29;79.66;100389.38;2618073;54;20027;-64
2022/01/26 06:06:43;;;;;;;26.25;13.43;;;;;;;0.28;79.77;100376.44;2618175;54;20039;-64
2022/01/26 06:09:13;;;;;;;24.48;13.27;;;;;;;0.25;79.19;100385.28;2618387;54;20574;-64
2022/01/26 06:11:43;;;;;;;24.85;12.82;;;;;;;0.16;79.45;100378.84;2618667;54;20069;-64
2022/01/26 06:14:15;;;;;;;24.10;12.75;;;;;;;0.10;78.97;100373.97;2617476;54;20049;-63
2022/01/26 06:16:45;;;;;;;28.50;14.02;;;;;;;0.16;79.53;100384.06;2618053;54;20034;-64
2022/01/26 06:19:14;;;;;;;27.50;13.70;;;;;;;0.21;79.48;100381.19;2617976;54;20033;-64
2022/01/26 06:21:44;;;;;;;27.42;13.80;;;;;;;0.29;79.29;100385.94;2617483;54;20030;-64
2022/01/26 06:24:14;;;;;;;28.77;14.48;;;;;;;0.33;79.56;100384.84;2618073;54;20066;-64
2022/01/26 06:26:43;;;;;;;23.73;13.27;;;;;;;0.42;79.08;100385.13;2618577;54;20081;-64
2022/01/26 06:29:15;;;;;;;27.60;14.00;;;;;;;0.52;79.48;100377.63;2617725;54;20110;-64
2022/01/26 06:31:46;;;;;;;30.67;14.82;;;;;;;0.49;79.06;100391.66;2617723;54;20026;-64
2022/01/26 06:34:15;;;;;;;34.97;15.15;;;;;;;0.38;78.74;100398.41;2618340;54;20129;-64
2022/01/26 06:36:45;;;;;;;30.42;14.27;;;;;;;0.27;79.02;100399.03;2618418;54;20097;-64
2022/01/26 06:39:16;;;;;;;32.20;16.08;;;;;;;0.28;79.26;100415.47;2619189;39;20451;-64
2022/01/26 06:41:54;;;;;;;30.35;14.57;;;;;;;0.30;79.03;100418.84;2618393;54;20633;-63
2022/01/26 06:44:31;;;;;;;33.33;15.75;;;;;;;0.24;79.14;100407.88;2618905;54;20064;-63
2022/01/26 06:47:18;;;;;;;34.70;14.80;;;;;;;0.14;79.42;100409.28;2618615;54;20134;-63
2022/01/26 06:49:48;;;;;;;32.88;15.98;;;;;;;0.07;79.76;100404.53;2618380;54;20022;-64
2022/01/26 06:52:17;;;;;;;31.88;16.02;;;;;;;0.19;80.01;100396.84;2619482;39;20581;-64
2022/01/26 06:54:47;;;;;;;32.90;16.00;;;;;;;0.30;79.65;100404.06;2620271;31;20496;-63
2022/01/26 06:57:16;;;;;;;37.08;17.05;;;;;;;0.38;79.66;100401.03;2622278;54;20550;-64
2022/01/26 06:59:49;;;;;;;32.95;16.27;;;;;;;0.42;79.66;100410.31;2619339;54;20034;-63
2022/01/26 07:02:19;;;;;;;31.35;15.25;;;;;;;0.41;79.40;100425.09;2619589;54;20066;-65
2022/01/26 07:04:49;;;;;;;31.48;15.48;;;;;;;0.37;79.14;100423.59;2618729;54;20046;-64
2022/01/26 07:07:18;;;;;;;29.17;15.52;;;;;;;0.38;79.41;100429.63;2618726;54;20039;-63
2022/01/26 07:09:48;;;;;;;32.63;15.75;;;;;;;0.37;79.35;100443.59;2619115;54;20114;-63
2022/01/26 07:12:17;;;;;;;32.35;15.93;;;;;;;0.38;79.29;100453.06;2618808;54;20038;-63
2022/01/26 07:23:11;;;;;;;32.92;15.40;;;;;;;0.30;79.84;100461.28;2618240;54;20042;-63
2022/01/26 07:25:41;;;;;;;37.28;17.42;;;;;;;0.33;79.87;100461.13;2618868;54;20554;-62
2022/01/26 07:28:11;;;;;;;35.88;17.60;;;;;;;0.33;79.39;100463.72;2617940;54;20018;-62
2022/01/26 07:30:43;;;;;;;38.80;17.25;;;;;;;0.34;79.20;100467.16;2618293;54;20056;-62
2022/01/26 07:33:13;;;;;;;35.00;16.25;;;;;;;0.34;79.49;100472.38;2618797;54;20034;-65
2022/01/26 07:35:42;;;;;;;47.63;18.80;;;;;;;0.30;79.29;100470.84;2618609;54;20030;-64
2022/01/26 07:38:12;;;;;;;33.92;16.80;;;;;;;0.35;79.59;100461.03;2618037;54;20129;-65
2022/01/26 07:40:42;;;;;;;37.17;16.83;;;;;;;0.38;79.82;100447.84;2617991;54;20042;-63
2022/01/26 07:43:11;;;;;;;39.80;18.45;;;;;;;0.33;79.43;100442.06;2618751;54;20046;-64
2022/01/26 07:45:44;;;;;;;36.70;17.48;;;;;;;0.34;79.38;100460.19;2618129;54;20034;-64
2022/01/26 07:48:13;;;;;;;38.00;18.50;;;;;;;0.36;79.46;100453.13;2618450;54;20027;-64
2022/01/26 07:50:44;;;;;;;38.53;17.92;;;;;;;0.40;79.31;100452.03;2618495;54;20030;-64
2022/01/26 07:53:16;;;;;;;38.67;17.55;;;;;;;0.35;79.28;100458.41;2618101;54;20116;-64
2022/01/26 07:55:48;;;;;;;40.05;18.08;;;;;;;0.39;79.27;100465.13;2618687;54;20209;-64
2022/01/26 07:58:18;;;;;;;37.10;16.40;;;;;;;0.33;79.47;100461.13;2618658;54;20034;-63
2022/01/26 08:00:51;;;;;;;36.55;17.48;;;;;;;0.31;79.56;100478.56;2618063;54;20019;-64
2022/01/26 08:03:20;;;;;;;40.60;18.60;;;;;;;0.28;79.60;100490.91;2619030;39;20470;-64
2022/01/26 08:05:50;;;;;;;34.75;17.20;;;;;;;0.31;79.64;100470.75;2618464;54;20030;-64
2022/01/26 08:08:20;;;;;;;38.65;16.95;;;;;;;0.32;79.81;100469.81;2618232;54;20038;-62
2022/01/26 08:10:50;;;;;;;36.70;17.60;;;;;;;0.27;79.24;100489.22;2618308;47;20038;-64
2022/01/26 08:13:20;;;;;;;33.05;14.48;;;;;;;0.22;79.03;100507.69;2619018;46;20054;-65
2022/01/26 08:15:56;;;;;;;39.08;18.17;;;;;;;0.19;79.39;100508.69;2618021;54;20030;-64
2022/01/26 08:18:26;;;;;;;30.65;16.02;;;;;;;0.26;79.44;100503.16;2618595;54;20032;-65
2022/01/26 08:21:02;;;;;;;32.22;15.63;;;;;;;0.21;79.49;100506.88;2618553;54;20035;-65
2022/01/26 08:23:32;;;;;;;34.97;16.95;;;;;;;0.22;79.46;100490.31;2618594;54;20030;-64
2022/01/26 08:26:02;;;;;;;34.35;17.00;;;;;;;0.14;79.44;100471.72;2618221;54;20030;-65
2022/01/26 08:28:36;;;;;;;35.17;16.90;;;;;;;0.21;79.19;100480.84;2618510;54;20027;-64
2022/01/26 08:31:08;;;;;;;37.50;17.67;;;;;;;0.20;79.49;100465.31;2617996;54;20034;-64
2022/01/26 08:33:38;;;;;;;37.53;17.95;;;;;;;0.26;79.52;100467.59;2618428;54;20026;-64
2022/01/26 08:36:08;;;;;;;35.97;17.23;;;;;;;0.35;79.59;100451.44;2618213;54;20046;-63
2022/01/26 08:38:38;;;;;;;32.10;17.05;;;;;;;0.39;79.57;100452.13;2617888;54;20034;-64
2022/01/26 08:41:09;;;;;;;40.03;20.15;;;;;;;0.50;79.77;100449.75;2618491;54;20042;-64
2022/01/26 08:43:39;;;;;;;36.47;18.15;;;;;;;0.49;79.32;100448.91;2618547;39;20451;-63
2022/01/26 08:46:11;;;;;;;35.10;16.55;;;;;;;0.38;79.25;100448.69;2618383;54;20114;-64
2022/01/26 08:48:41;;;;;;;34.80;16.10;;;;;;;0.36;79.17;100447.09;2618491;54;20027;-64
2022/01/26 08:51:11;;;;;;;29.45;15.93;;;;;;;0.38;79.19;100451.28;2617719;54;20053;-64
2022/01/26 08:53:40;;;;;;;38.47;18.52;;;;;;;0.40;79.67;100441.63;2618705;54;20534;-64
2022/01/26 08:56:10;;;;;;;33.15;16.55;;;;;;;0.48;79.75;100452.41;2618291;54;20039;-64
2022/01/26 08:58:40;;;;;;;29.75;14.80;;;;;;;0.55;79.21;100452.91;2618044;54;20038;-62
2022/01/26 09:01:12;;;;;;;31.75;15.20;;;;;;;0.52;78.87;100455.69;2618299;54;20037;-63
2022/01/26 09:03:43;;;;;;;34.30;14.85;;;;;;;0.41;78.85;100461.53;2618492;54;20038;-64
2022/01/26 09:06:13;;;;;;;33.58;15.68;;;;;;;0.43;79.31;100440.59;2617619;54;20018;-63
2022/01/26 09:08:51;;;;;;;30.42;14.40;;;;;;;0.43;79.12;100432.81;2618364;47;20027;-63
2022/01/26 09:11:22;;;;;;;27.65;14.27;;;;;;;0.51;79.06;100424.56;2620204;54;20031;-64
2022/01/26 09:13:58;;;;;;;27.90;14.35;;;;;;;0.55;79.03;100441.69;2620294;39;20094;-64
2022/01/26 09:16:31;;;;;;;28.08;13.20;;;;;;;0.47;78.78;100437.75;2621070;54;20031;-64
2022/01/26 09:19:07;;;;;;;28.25;13.95;;;;;;;0.43;79.06;100431.03;2622778;46;20061;-64
2022/01/26 09:21:36;;;;;;;30.05;14.40;;;;;;;0.43;79.37;100445.81;2622196;47;20034;-63
2022/01/26 09:24:07;;;;;;;28.00;13.40;;;;;;;0.46;78.89;100454.28;2619641;54;20034;-64
2022/01/26 09:26:36;;;;;;;27.35;14.27;;;;;;;0.43;78.71;100451.84;2620187;54;20053;-64
2022/01/26 09:29:06;;;;;;;29.98;13.45;;;;;;;0.39;79.29;100437.34;2620049;47;20809;-65
2022/01/26 09:31:39;;;;;;;28.88;14.57;;;;;;;0.51;79.48;100445.38;2619130;54;20038;-64
2022/01/26 09:34:08;;;;;;;31.77;15.95;;;;;;;0.63;79.10;100449.88;2619669;39;20494;-65
2022/01/26 09:36:38;;;;;;;35.13;16.90;;;;;;;0.60;79.05;100443.06;2620636;47;20086;-66
2022/01/26 09:39:07;;;;;;;31.15;15.35;;;;;;;0.62;79.10;100436.03;2623094;54;20038;-64
2022/01/26 09:41:37;;;;;;;32.28;18.10;;;;;;;0.65;78.71;100448.88;2621955;54;20042;-65
2022/01/26 09:44:08;;;;;;;33.10;17.33;;;;;;;0.58;78.79;100457.13;2622208;54;20065;-64
2022/01/26 09:46:41;;;;;;;30.33;15.95;;;;;;;0.55;79.04;100454.69;2621783;54;20030;-65
2022/01/26 09:49:11;;;;;;;31.60;15.35;;;;;;;0.49;78.74;100451.50;2622111;54;20030;-65
2022/01/26 09:51:43;;;;;;;33.28;15.13;;;;;;;0.52;79.01;100458.28;2622530;54;20549;-64
2022/01/26 09:54:16;;;;;;;29.00;13.27;;;;;;;0.48;78.77;100467.19;2621676;54;20034;-64
2022/01/26 09:56:47;;;;;;;25.70;13.57;;;;;;;0.43;78.80;100484.84;2620290;54;20086;-63
2022/01/26 09:59:17;;;;;;;25.50;12.68;;;;;;;0.47;78.73;100494.16;2618763;54;20034;-63
2022/01/26 10:01:52;;;;;;;32.00;14.73;;;;;;;0.46;78.79;100495.91;2618013;54;20081;-63
2022/01/26 10:04:24;;;;;;;26.70;12.85;;;;;;;0.52;78.78;100492.13;2617885;47;20057;-63
2022/01/26 10:07:14;;;;;;;29.73;15.10;;;;;;;0.53;78.84;100495.56;2618085;54;20030;-62
2022/01/26 10:10:00;;;;;;;25.63;14.57;;;;;;;0.53;78.74;100512.03;2618548;54;20034;-62
2022/01/26 10:15:32;;;;;;;26.35;16.08;;;;;;;0.48;79.06;100511.44;2618737;39;20487;-62
2022/01/26 10:18:08;;;;;;;28.88;15.23;;;;;;;0.48;78.96;100514.03;2618835;54;20150;-62
2022/01/26 10:20:43;;;;;;;30.73;16.50;;;;;;;0.54;79.05;100510.28;2619244;54;20077;-64
2022/01/26 10:23:16;;;;;;;25.85;14.48;;;;;;;0.39;78.52;100510.19;2619169;54;20096;-64
2022/01/26 10:25:49;;;;;;;23.48;12.75;;;;;;;0.27;78.56;100513.47;2618598;54;20066;-64
2022/01/26 10:28:20;;;;;;;26.80;15.13;;;;;;;0.13;78.67;100532.47;2618872;54;20035;-64
2022/01/26 10:30:50;;;;;;;32.65;18.33;;;;;;;0.23;78.84;100533.63;2619712;39;20433;-64
2022/01/26 10:33:22;;;;;;;27.02;15.10;;;;;;;0.30;78.77;100541.09;2618348;47;20159;-62
2022/01/26 10:36:03;;;;;;;32.92;16.02;;;;;;;0.38;78.94;100526.72;2619450;54;20042;-64
2022/01/26 10:38:33;;;;;;;29.85;16.98;;;;;;;0.47;78.58;100513.19;2618324;47;20035;-63
2022/01/26 10:41:03;;;;;;;28.17;15.25;;;;;;;0.51;78.46;100497.41;2618550;47;20554;-63
2022/01/26 10:43:33;;;;;;;26.60;17.58;;;;;;;0.46;78.20;100498.53;2618483;47;20030;-62
2022/01/26 10:46:05;;;;;;;23.48;13.50;;;;;;;0.45;77.89;100493.41;2618798;54;20106;-62
2022/01/26 10:48:43;;;;;;;29.77;16.83;;;;;;;0.47;78.18;100494.16;2619512;54;20035;-62
2022/01/26 10:51:36;;;;;;;30.80;16.50;;;;;;;0.58;78.35;100489.19;2619234;54;20031;-62
2022/01/26 10:54:20;;;;;;;26.27;14.05;;;;;;;0.56;77.60;100490.19;2619070;54;20066;-63
2022/01/26 10:56:54;;;;;;;27.73;13.05;;;;;;;0.50;77.53;100501.78;2619217;54;20078;-61
2022/01/26 10:59:23;;;;;;;24.02;13.88;;;;;;;0.55;78.03;100506.72;2619732;54;20046;-63
2022/01/26 11:01:53;;;;;;;20.23;12.38;;;;;;;0.58;78.10;100503.97;2619933;54;20030;-61
2022/01/26 11:04:25;;;;;;;23.17;12.73;;;;;;;0.70;77.68;100490.25;2618268;54;20074;-61
2022/01/26 11:06:56;;;;;;;24.42;13.88;;;;;;;0.74;77.89;100497.78;2618155;54;20053;-61
2022/01/26 11:09:29;;;;;;;21.45;12.20;;;;;;;0.76;77.63;100494.25;2619110;54;20070;-62
2022/01/26 11:12:03;;;;;;;24.95;12.98;;;;;;;0.79;77.75;100484.50;2618840;54;20083;-61
2022/01/26 11:14:44;;;;;;;23.48;12.88;;;;;;;0.91;77.86;100482.94;2618928;54;20026;-61
2022/01/26 11:17:29;;;;;;;23.55;13.07;;;;;;;0.92;77.64;100489.81;2619238;54;20042;-63
2022/01/26 11:20:03;;;;;;;25.30;14.07;;;;;;;0.96;77.43;100484.34;2619000;47;20042;-63
2022/01/26 11:22:33;;;;;;;26.63;13.18;;;;;;;0.89;77.78;100475.22;2618535;39;20522;-64
2022/01/26 11:25:11;;;;;;;25.17;14.93;;;;;;;0.96;77.57;100488.72;2618760;54;20074;-63
2022/01/26 11:27:43;;;;;;;25.92;13.88;;;;;;;0.90;77.72;100482.13;2618122;47;20034;-62
2022/01/26 11:30:22;;;;;;;28.02;13.98;;;;;;;0.88;77.18;100470.09;2618977;54;20042;-62
2022/01/26 11:32:55;;;;;;;23.52;13.32;;;;;;;0.85;77.41;100478.91;2618893;54;20030;-63
2022/01/26 11:35:29;;;;;;;25.42;14.20;;;;;;;0.78;77.25;100482.84;2618995;54;20038;-63
2022/01/26 11:38:08;;;;;;;;;;;;;;;0.74;77.26;100483.94;2618937;54;20039;-64
2022/01/26 11:46:11;;;;;;;25.30;13.07;;;;;;;0.87;77.88;100476.25;2618918;54;20594;-64
2022/01/26 11:48:41;;;;;;;23.05;12.45;;;;;;;0.85;77.74;100475.47;2618505;39;20422;-64
2022/01/26 11:51:13;;;;;;;25.58;13.60;;;;;;;0.94;77.83;100467.16;2618600;46;20041;-63
2022/01/26 11:53:43;;;;;;;27.92;15.50;;;;;;;1.02;77.84;100456.25;2618083;54;20030;-62
2022/01/26 11:56:20;;;;;;;27.77;14.55;;;;;;;0.99;77.35;100459.91;2617737;54;20562;-63
2022/01/26 11:58:53;;;;;;;25.27;14.10;;;;;;;0.97;77.40;100454.75;2620626;54;20038;-64
2022/01/26 12:01:28;;;;;;;25.17;15.32;;;;;;;0.93;77.33;100457.66;2621118;54;20086;-64
2022/01/26 12:04:01;;;;;;;25.45;13.95;;;;;;;0.94;77.60;100454.13;2618636;54;20169;-64
2022/01/26 12:06:35;;;;;;;26.75;14.95;;;;;;;0.98;77.15;100447.81;2617890;54;20030;-64
2022/01/26 12:09:07;;;;;;;22.88;14.27;;;;;;;1.03;77.26;100450.16;2619603;54;20621;-62
2022/01/26 12:11:38;;;;;;;26.23;13.95;;;;;;;1.07;77.27;100449.03;2618643;54;20046;-62
2022/01/26 12:14:12;;;;;;;26.05;13.80;;;;;;;1.15;77.22;100450.25;2619000;54;20039;-62
2022/01/26 12:16:46;;;;;;;27.05;14.70;;;;;;;1.19;77.45;100451.72;2617933;54;20030;-63
2022/01/26 12:19:29;;;;;;;26.98;14.00;;;;;;;1.19;77.48;100448.28;2618729;54;20044;-63
2022/01/26 14:17:15;;;;;;;34.30;17.00;;;;;;;1.51;76.88;100469.78;2624286;47;20371;-69
2022/01/26 14:20:07;;;;;;;31.05;16.83;;;;;;;1.47;76.88;100465.69;2630984;39;20098;-70
2022/01/26 14:22:49;;;;;;;32.13;15.63;;;;;;;1.51;76.71;100455.91;2623988;54;20046;-68
2022/01/26 14:25:26;;;;;;;32.40;17.35;;;;;;;1.45;76.67;100447.53;2624198;54;20054;-71
2022/01/26 14:28:01;;;;;;;36.22;17.55;;;;;;;1.42;76.94;100442.50;2624327;39;20459;-69
2022/01/26 14:30:39;;;;;;;37.17;17.35;;;;;;;1.49;76.47;100446.41;2624770;47;20573;-73
2022/01/26 15:01:19;;;;;;;35.80;18.30;;;;;;;1.79;75.65;100393.28;2628766;39;20426;-69
2022/01/26 15:34:19;;;;;;;35.80;17.88;;;;;;;1.62;75.63;100430.84;2619214;54;20118;-70
2022/01/26 15:51:12;;;;;;;33.28;17.33;;;;;;;1.67;74.98;100433.16;2619292;54;20568;-70
2022/01/26 15:59:25;;;;;;;33.78;17.85;;;;;;;1.58;75.54;100416.31;2619037;39;20474;-71
2022/01/26 16:07:45;;;;;;;31.55;16.83;;;;;;;1.55;75.86;100420.88;2619119;54;20045;-69
2022/01/26 16:16:32;;;;;;;35.72;17.17;;;;;;;1.54;75.57;100417.44;2619975;54;20026;-71
2022/01/26 16:21:19;;;;;;;35.60;17.38;;;;;;;1.33;76.34;100419.63;2619715;54;20065;-69
2022/01/26 16:27:00;;;;;;;32.38;17.15;;;;;;;1.32;76.79;100404.94;2618938;54;20561;-71
2022/01/26 16:37:50;;;;;;;28.42;13.88;;;;;;;1.21;76.38;100426.41;2618988;54;20554;-70
2022/01/26 18:13:27;;;;;;;40.08;19.38;;;;;;;0.96;76.82;100450.50;2618688;51;20026;-71